createdAt,value
2018-03-31T00:02:17.395Z,11.70
2018-03-31T00:04:44.462Z,11.60
2018-03-31T00:07:10.929Z,11.50
2018-03-31T00:09:38.300Z,11.50
2018-03-31T00:12:04.341Z,11.40
2018-03-31T00:14:31.079Z,11.30
2018-03-31T00:16:57.587Z,11.30
2018-03-31T00:19:24.594Z,11.40
2018-03-31T00:21:50.642Z,11.30
2018-03-31T00:24:17.479Z,11.50
2018-03-31T00:26:44.288Z,11.40
2018-03-31T00:29:10.742Z,11.40
2018-03-31T00:31:37.578Z,11.50
2018-03-31T00:34:04.372Z,11.40
2018-03-31T00:36:31.334Z,11.40
2018-03-31T00:38:57.834Z,11.30
2018-03-31T00:41:24.768Z,11.20
2018-03-31T00:43:51.668Z,11.10
2018-03-31T00:46:17.713Z,11.10
2018-03-31T00:48:43.767Z,11.00
2018-03-31T00:51:10.524Z,10.80
2018-03-31T00:53:36.553Z,10.70
2018-03-31T00:56:02.570Z,10.60
2018-03-31T00:58:28.956Z,10.50
2018-03-31T01:00:55.770Z,10.30
2018-03-31T01:03:22.240Z,10.30
2018-03-31T01:05:49.238Z,10.20
2018-03-31T01:08:16.276Z,10.20
2018-03-31T01:10:42.809Z,10.20
2018-03-31T01:13:09.643Z,10.30
2018-03-31T01:15:36.981Z,10.20
2018-03-31T01:18:04.329Z,10.20
2018-03-31T01:20:31.408Z,10.20
2018-03-31T01:22:58.409Z,10.30
2018-03-31T01:25:25.286Z,10.10
2018-03-31T01:27:52.309Z,10.10
2018-03-31T01:30:19.552Z,10.00
2018-03-31T01:32:45.709Z,10.10
2018-03-31T01:35:12.699Z,10.10
2018-03-31T01:37:39.039Z,10.20
2018-03-31T01:40:05.853Z,10.00
2018-03-31T01:42:32.244Z,10.00
2018-03-31T01:44:59.512Z,10.10
2018-03-31T01:47:25.697Z,10.10
2018-03-31T01:49:51.927Z,10.10
2018-03-31T01:52:18.598Z,10.10
2018-03-31T01:54:45.382Z,10.10
2018-03-31T01:57:11.391Z,10.10
2018-03-31T01:59:38.115Z,9.90
2018-03-31T02:02:04.139Z,9.90
2018-03-31T02:04:30.163Z,10.00
2018-03-31T02:06:57.099Z,10.10
2018-03-31T02:09:23.941Z,10.10
2018-03-31T02:11:50.715Z,10.10
2018-03-31T02:14:18.231Z,10.00
2018-03-31T02:16:45.308Z,10.00
2018-03-31T02:19:12.915Z,10.00
2018-03-31T02:21:38.900Z,10.00
2018-03-31T02:24:05.003Z,9.90
2018-03-31T02:26:31.032Z,9.80
2018-03-31T02:28:57.085Z,9.60
2018-03-31T02:31:23.604Z,9.70
2018-03-31T02:33:50.444Z,9.70
2018-03-31T02:36:16.490Z,9.70
2018-03-31T02:38:42.507Z,9.80
2018-03-31T02:41:09.301Z,9.80
2018-03-31T02:43:35.537Z,9.70
2018-03-31T02:46:01.582Z,9.70
2018-03-31T02:48:27.788Z,9.60
2018-03-31T02:50:53.822Z,9.60
2018-03-31T02:53:20.072Z,9.60
2018-03-31T02:55:46.991Z,9.60
2018-03-31T02:58:13.716Z,9.50
2018-03-31T03:00:39.833Z,9.50
2018-03-31T03:03:06.436Z,9.60
2018-03-31T03:05:32.563Z,9.60
2018-03-31T03:07:58.598Z,9.60
2018-03-31T03:10:24.782Z,9.60
2018-03-31T03:12:51.405Z,9.50
2018-03-31T03:15:17.436Z,9.50
2018-03-31T03:17:43.898Z,9.50
2018-03-31T03:20:11.428Z,9.40
2018-03-31T03:22:37.457Z,9.40
2018-03-31T03:25:03.540Z,9.30
2018-03-31T03:27:30.305Z,9.30
2018-03-31T03:29:56.979Z,9.30
2018-03-31T03:32:22.982Z,9.20
2018-03-31T03:34:49.114Z,9.20
2018-03-31T03:37:15.717Z,9.20
2018-03-31T03:39:42.283Z,9.30
2018-03-31T03:42:08.308Z,9.40
2018-03-31T03:44:35.294Z,9.40
2018-03-31T03:47:03.036Z,9.40
2018-03-31T03:49:29.212Z,9.40
2018-03-31T03:51:55.375Z,9.40
2018-03-31T03:54:21.398Z,9.30
2018-03-31T03:56:47.678Z,9.30
2018-03-31T03:59:15.346Z,9.30
2018-03-31T04:01:42.491Z,9.30
2018-03-31T04:04:09.577Z,9.30
2018-03-31T04:06:36.549Z,9.40
2018-03-31T04:09:03.183Z,9.40
2018-03-31T04:11:29.472Z,9.40
2018-03-31T04:13:57.373Z,9.50
2018-03-31T04:16:24.149Z,9.50
2018-03-31T04:18:51.061Z,9.50
2018-03-31T04:21:17.630Z,9.50
2018-03-31T04:23:44.436Z,9.60
2018-03-31T04:26:10.935Z,9.60
2018-03-31T04:28:37.657Z,9.60
2018-03-31T04:31:03.661Z,9.60
2018-03-31T04:33:30.411Z,9.70
2018-03-31T04:35:57.755Z,9.60
2018-03-31T04:38:25.043Z,9.60
2018-03-31T04:40:52.118Z,9.50
2018-03-31T04:43:18.944Z,9.60
2018-03-31T04:45:45.221Z,9.50
2018-03-31T04:48:12.763Z,9.50
2018-03-31T04:50:39.197Z,9.40
2018-03-31T04:53:06.172Z,9.50
2018-03-31T04:55:33.676Z,9.40
2018-03-31T04:58:00.210Z,9.40
2018-03-31T05:00:27.021Z,9.30
2018-03-31T05:02:53.279Z,9.30
2018-03-31T05:05:20.262Z,9.40
2018-03-31T05:07:46.299Z,9.40
2018-03-31T05:10:13.477Z,9.40
2018-03-31T05:12:40.318Z,9.50
2018-03-31T05:15:07.305Z,9.50
2018-03-31T05:17:33.848Z,9.50
2018-03-31T05:19:59.963Z,9.50
2018-03-31T05:22:26.158Z,9.40
2018-03-31T05:24:52.465Z,9.40
2018-03-31T05:27:19.351Z,9.50
2018-03-31T05:29:46.110Z,9.40
2018-03-31T05:32:12.814Z,9.50
2018-03-31T05:34:39.299Z,9.50
2018-03-31T05:37:06.067Z,9.50
2018-03-31T05:39:32.523Z,9.50
2018-03-31T05:41:59.381Z,9.50
2018-03-31T05:44:25.937Z,9.40
2018-03-31T05:46:52.801Z,9.40
2018-03-31T05:49:19.954Z,9.40
2018-03-31T05:51:47.006Z,9.40
2018-03-31T05:54:13.979Z,9.50
2018-03-31T05:56:40.062Z,9.50
2018-03-31T05:59:06.975Z,9.50
2018-03-31T06:01:33.452Z,9.50
2018-03-31T06:04:00.210Z,9.30
2018-03-31T06:06:26.331Z,9.30
2018-03-31T06:08:52.759Z,9.40
2018-03-31T06:11:19.144Z,9.40
2018-03-31T06:13:46.115Z,9.40
2018-03-31T06:16:12.914Z,9.40
2018-03-31T06:18:39.358Z,9.40
2018-03-31T06:21:06.435Z,9.40
2018-03-31T06:23:32.419Z,9.40
2018-03-31T06:25:59.023Z,9.40
2018-03-31T06:28:26.424Z,8.90
2018-03-31T06:30:52.797Z,8.90
2018-03-31T06:33:18.842Z,8.90
2018-03-31T06:35:45.107Z,8.80
2018-03-31T06:38:12.492Z,8.70
2018-03-31T06:40:39.434Z,8.70
2018-03-31T06:43:05.466Z,8.60
2018-03-31T06:45:32.687Z,8.70
2018-03-31T06:47:59.479Z,8.70
2018-03-31T06:50:25.808Z,8.70
2018-03-31T06:52:53.479Z,8.60
2018-03-31T06:55:19.537Z,8.60
2018-03-31T06:57:46.101Z,8.60
2018-03-31T07:00:13.063Z,8.60
2018-03-31T07:02:39.147Z,8.60
2018-03-31T07:05:06.089Z,8.50
2018-03-31T07:07:32.411Z,8.50
2018-03-31T07:09:59.413Z,8.50
2018-03-31T07:12:26.033Z,8.40
2018-03-31T07:14:53.004Z,8.40
2018-03-31T07:17:19.116Z,8.30
2018-03-31T07:19:45.195Z,8.30
2018-03-31T07:22:11.231Z,8.40
2018-03-31T07:24:37.246Z,8.40
2018-03-31T07:27:03.516Z,8.40
2018-03-31T07:29:30.286Z,8.50
2018-03-31T07:31:56.855Z,8.50
2018-03-31T07:34:22.887Z,8.50
2018-03-31T07:36:49.482Z,8.50
2018-03-31T07:39:15.569Z,8.40
2018-03-31T07:41:43.165Z,8.30
2018-03-31T07:44:09.254Z,8.30
2018-03-31T07:46:36.056Z,8.40
2018-03-31T07:49:02.225Z,8.40
2018-03-31T07:51:29.711Z,8.40
2018-03-31T07:53:55.750Z,8.40
2018-03-31T07:56:21.840Z,8.50
2018-03-31T07:58:47.988Z,8.50
2018-03-31T08:01:14.003Z,8.40
2018-03-31T08:03:40.720Z,8.50
2018-03-31T08:06:07.325Z,8.50
2018-03-31T08:08:33.332Z,8.50
2018-03-31T08:10:59.344Z,8.40
2018-03-31T08:13:25.780Z,8.40
2018-03-31T08:15:52.633Z,8.30
2018-03-31T08:18:18.649Z,8.40
2018-03-31T08:20:45.040Z,8.30
2018-03-31T08:23:11.941Z,8.40
2018-03-31T08:25:38.499Z,8.40
2018-03-31T08:28:06.656Z,8.50
2018-03-31T08:30:32.920Z,8.50
2018-03-31T08:32:59.626Z,8.50
2018-03-31T08:35:25.734Z,8.50
2018-03-31T08:37:53.207Z,8.60
2018-03-31T08:40:19.225Z,8.60
2018-03-31T08:42:45.936Z,8.50
2018-03-31T08:45:11.979Z,8.50
2018-03-31T08:47:38.072Z,8.40
2018-03-31T08:50:04.753Z,8.50
2018-03-31T08:52:30.882Z,8.50
2018-03-31T08:54:57.501Z,8.40
2018-03-31T08:57:23.598Z,8.40
2018-03-31T08:59:49.674Z,8.30
2018-03-31T09:02:16.307Z,8.30
2018-03-31T09:04:43.565Z,8.20
2018-03-31T09:07:10.351Z,8.20
2018-03-31T09:09:36.991Z,8.30
2018-03-31T09:12:03.589Z,8.30
2018-03-31T09:14:31.178Z,8.40
2018-03-31T09:16:57.623Z,8.30
2018-03-31T09:19:23.637Z,8.40
2018-03-31T09:21:50.140Z,8.30
2018-03-31T09:24:17.638Z,8.40
2018-03-31T09:26:44.167Z,8.40
2018-03-31T09:29:11.123Z,8.40
2018-03-31T09:31:37.186Z,8.40
2018-03-31T09:34:03.191Z,8.40
2018-03-31T09:36:30.241Z,8.50
2018-03-31T09:38:56.920Z,8.40
2018-03-31T09:41:23.351Z,8.40
2018-03-31T09:43:49.466Z,8.40
2018-03-31T09:46:16.681Z,8.50
2018-03-31T09:48:43.895Z,8.50
2018-03-31T09:51:10.127Z,8.40
2018-03-31T09:53:37.118Z,8.40
2018-03-31T09:56:03.555Z,8.40
2018-03-31T09:58:31.328Z,8.50
2018-03-31T10:01:03.151Z,8.50
2018-03-31T10:03:29.229Z,8.50
2018-03-31T10:05:56.323Z,8.50
2018-03-31T10:08:22.998Z,8.40
2018-03-31T10:10:50.018Z,8.50
2018-03-31T10:13:17.029Z,8.50
2018-03-31T10:15:43.911Z,8.60
2018-03-31T10:18:09.929Z,8.60
2018-03-31T10:20:36.091Z,8.60
2018-03-31T10:23:02.892Z,8.50
2018-03-31T10:25:29.423Z,8.50
2018-03-31T10:27:56.214Z,8.50
2018-03-31T10:30:23.527Z,8.70
2018-03-31T10:32:50.215Z,8.70
2018-03-31T10:35:16.311Z,8.70
2018-03-31T10:37:42.299Z,8.70
2018-03-31T10:40:08.365Z,8.70
2018-03-31T10:42:35.808Z,8.80
2018-03-31T10:45:01.872Z,8.80
2018-03-31T10:47:27.910Z,8.90
2018-03-31T10:49:53.924Z,8.90
2018-03-31T10:52:20.584Z,8.90
2018-03-31T10:54:48.050Z,8.80
2018-03-31T10:57:14.616Z,8.80
2018-03-31T10:59:41.254Z,8.80
2018-03-31T11:02:08.052Z,8.90
2018-03-31T11:04:34.090Z,8.90
2018-03-31T11:07:00.738Z,8.90
2018-03-31T11:09:27.653Z,8.90
2018-03-31T11:11:53.757Z,8.90
2018-03-31T11:14:19.870Z,8.90
2018-03-31T11:16:46.696Z,9.00
2018-03-31T11:19:13.854Z,9.10
2018-03-31T11:21:40.886Z,9.10
2018-03-31T11:24:07.767Z,9.20
2018-03-31T11:26:33.832Z,9.20
2018-03-31T11:29:00.741Z,9.20
2018-03-31T11:31:26.819Z,9.10
2018-03-31T11:33:52.819Z,9.00
2018-03-31T11:36:19.418Z,9.00
2018-03-31T11:38:46.164Z,9.10
2018-03-31T11:41:12.848Z,9.20
2018-03-31T11:43:39.645Z,9.30
2018-03-31T11:46:05.686Z,9.20
2018-03-31T11:48:31.927Z,9.30
2018-03-31T11:50:58.796Z,9.40
2018-03-31T11:53:24.884Z,9.40
2018-03-31T11:55:51.167Z,9.50
2018-03-31T11:58:18.009Z,9.50
2018-03-31T12:00:44.998Z,9.50
2018-03-31T12:03:12.164Z,9.60
2018-03-31T12:05:39.426Z,9.60
2018-03-31T12:08:06.378Z,9.70
2018-03-31T12:10:32.524Z,9.70
2018-03-31T12:12:59.824Z,9.70
2018-03-31T12:15:27.448Z,9.80
2018-03-31T12:17:54.349Z,9.80
2018-03-31T12:20:20.700Z,9.80
2018-03-31T12:22:48.631Z,9.90
2018-03-31T12:25:14.828Z,9.90
2018-03-31T12:27:40.910Z,9.90
2018-03-31T12:30:07.952Z,9.90
2018-03-31T12:32:33.964Z,9.90
2018-03-31T12:35:00.272Z,9.90
2018-03-31T12:37:27.083Z,10.00
2018-03-31T12:39:53.559Z,10.00
2018-03-31T12:42:19.802Z,10.10
2018-03-31T12:44:45.865Z,10.10
2018-03-31T12:47:12.630Z,10.20
2018-03-31T12:49:39.052Z,10.20
2018-03-31T12:52:06.963Z,10.20
2018-03-31T12:54:33.397Z,10.20
2018-03-31T12:57:00.349Z,10.30
2018-03-31T12:59:26.951Z,10.30
2018-03-31T13:01:53.128Z,10.40
2018-03-31T13:04:20.102Z,10.40
2018-03-31T13:06:46.991Z,10.30
2018-03-31T13:09:12.996Z,10.30
2018-03-31T13:11:39.152Z,10.30
2018-03-31T13:14:05.366Z,10.40
2018-03-31T13:16:31.383Z,10.40
2018-03-31T13:18:58.282Z,10.40
2018-03-31T13:21:24.809Z,10.40
2018-03-31T13:23:51.049Z,10.40
2018-03-31T13:26:17.399Z,10.50
2018-03-31T13:28:44.234Z,10.60
2018-03-31T13:31:10.307Z,10.60
2018-03-31T13:33:36.310Z,10.70
2018-03-31T13:36:02.566Z,10.70
2018-03-31T13:38:29.611Z,10.60
2018-03-31T13:40:56.373Z,10.60
2018-03-31T13:43:22.441Z,10.50
2018-03-31T13:45:48.731Z,10.50
2018-03-31T13:48:14.796Z,10.40
2018-03-31T13:50:40.898Z,10.30
2018-03-31T13:53:07.911Z,10.30
2018-03-31T13:55:33.929Z,10.30
2018-03-31T13:58:01.901Z,10.20
2018-03-31T14:00:29.128Z,10.20
2018-03-31T14:02:55.985Z,10.30
2018-03-31T14:05:22.460Z,10.20
2018-03-31T14:07:49.324Z,10.30
2018-03-31T14:10:15.355Z,10.30
2018-03-31T14:12:42.512Z,10.30
2018-03-31T14:15:10.038Z,10.40
2018-03-31T14:17:36.951Z,10.40
2018-03-31T14:20:03.731Z,10.30
2018-03-31T14:22:30.342Z,10.30
2018-03-31T14:24:56.577Z,10.30
2018-03-31T14:27:22.677Z,10.30
2018-03-31T14:29:49.673Z,10.40
2018-03-31T14:32:16.493Z,10.50
2018-03-31T14:34:42.635Z,10.50
2018-03-31T14:37:09.495Z,10.50
2018-03-31T14:39:36.357Z,10.70
2018-03-31T14:42:02.617Z,10.70
2018-03-31T14:44:29.759Z,10.80
2018-03-31T14:46:56.921Z,10.80
2018-03-31T14:49:23.875Z,10.80
2018-03-31T14:51:50.354Z,10.80
2018-03-31T14:54:16.388Z,10.90
2018-03-31T14:56:43.168Z,10.90
2018-03-31T14:59:10.060Z,10.90
2018-03-31T15:01:37.064Z,10.90
2018-03-31T15:04:03.878Z,11.00
2018-03-31T15:06:30.931Z,11.00
2018-03-31T15:08:56.951Z,11.00
2018-03-31T15:11:24.369Z,11.00
2018-03-31T15:13:51.176Z,11.00
2018-03-31T15:16:17.986Z,11.00
2018-03-31T15:18:45.133Z,11.00
2018-03-31T15:21:12.022Z,11.10
2018-03-31T15:23:38.647Z,11.00
2018-03-31T15:26:04.663Z,11.10
2018-03-31T15:28:30.912Z,11.10
2018-03-31T15:30:58.101Z,11.10
2018-03-31T15:33:25.314Z,11.10
2018-03-31T15:35:51.761Z,11.10
2018-03-31T15:38:17.768Z,11.10
2018-03-31T15:40:44.623Z,11.10
2018-03-31T15:43:12.613Z,11.10
2018-03-31T15:45:38.638Z,11.00
2018-03-31T15:48:05.225Z,11.00
2018-03-31T15:50:31.956Z,10.90
2018-03-31T15:52:58.915Z,11.00
2018-03-31T15:55:25.731Z,10.90
2018-03-31T15:57:51.849Z,10.90
2018-03-31T16:00:18.661Z,10.90
2018-03-31T16:02:44.796Z,10.90
2018-03-31T16:07:44.082Z,11.10
2018-03-31T16:10:10.862Z,11.00
2018-03-31T16:12:37.048Z,10.90
2018-03-31T16:15:03.197Z,10.80
2018-03-31T16:17:30.060Z,10.80
2018-03-31T16:19:56.814Z,10.80
2018-03-31T16:22:23.218Z,10.80
2018-03-31T16:24:49.467Z,10.80
2018-03-31T16:27:16.496Z,10.60
2018-03-31T16:29:42.760Z,10.60
2018-03-31T16:32:09.777Z,10.60
2018-03-31T16:34:36.693Z,10.50
2018-03-31T16:37:02.767Z,10.50
2018-03-31T16:39:28.777Z,10.40
2018-03-31T16:41:55.936Z,10.20
2018-03-31T16:44:22.920Z,10.10
2018-03-31T16:46:49.748Z,10.00
2018-03-31T16:49:15.780Z,10.00
2018-03-31T16:51:42.273Z,10.10
2018-03-31T16:54:09.395Z,10.10
2018-03-31T16:56:36.217Z,10.10
2018-03-31T16:59:02.256Z,10.10
2018-03-31T17:01:28.916Z,10.20
2018-03-31T17:03:55.762Z,10.20
2018-03-31T17:06:22.566Z,10.20
2018-03-31T17:08:49.568Z,10.10
2018-03-31T17:11:16.015Z,10.20
2018-03-31T17:13:43.281Z,10.00
2018-03-31T17:16:11.206Z,10.00
2018-03-31T17:18:37.976Z,10.00
2018-03-31T17:21:04.505Z,10.00
2018-03-31T17:23:31.517Z,9.90
2018-03-31T17:25:58.647Z,9.70
2018-03-31T17:28:24.737Z,9.70
2018-03-31T17:30:50.762Z,9.60
2018-03-31T17:33:16.929Z,9.50
2018-03-31T17:35:43.582Z,9.50
2018-03-31T17:38:10.343Z,9.60
2018-03-31T17:40:36.372Z,9.60
2018-03-31T17:43:02.431Z,9.60
2018-03-31T17:45:28.562Z,9.60
2018-03-31T17:47:54.633Z,9.60
2018-03-31T17:50:21.659Z,9.60
2018-03-31T17:52:49.188Z,9.70
2018-03-31T17:55:15.717Z,9.60
2018-03-31T17:57:42.829Z,9.60
2018-03-31T18:00:10.331Z,9.60
2018-03-31T18:02:36.334Z,9.60
2018-03-31T18:05:02.641Z,9.60
2018-03-31T18:07:29.496Z,9.60
2018-03-31T18:09:55.599Z,9.60
2018-03-31T18:12:22.424Z,9.30
2018-03-31T18:14:49.305Z,9.30
2018-03-31T18:17:15.371Z,9.30
2018-03-31T18:19:41.589Z,9.40
2018-03-31T18:22:07.786Z,9.40
2018-03-31T18:24:34.056Z,9.30
2018-03-31T18:27:00.876Z,9.30
2018-03-31T18:29:27.056Z,9.30
2018-03-31T18:31:54.430Z,9.20
2018-03-31T18:34:21.670Z,9.20
2018-03-31T18:36:48.614Z,9.20
2018-03-31T18:39:14.686Z,9.20
2018-03-31T18:41:40.841Z,9.20
2018-03-31T18:44:07.047Z,9.20
2018-03-31T18:46:33.101Z,9.20
2018-03-31T18:48:59.872Z,9.20
2018-03-31T18:51:25.952Z,9.20
2018-03-31T18:53:52.495Z,9.20
2018-03-31T18:56:19.961Z,9.20
2018-03-31T18:58:46.757Z,9.20
2018-03-31T19:01:12.845Z,9.20
2018-03-31T19:03:38.996Z,9.00
2018-03-31T19:06:05.615Z,9.00
2018-03-31T19:08:32.364Z,9.00
2018-03-31T19:10:58.529Z,9.00
2018-03-31T19:13:27.239Z,9.00
2018-03-31T19:15:54.010Z,8.80
2018-03-31T19:18:20.095Z,8.80
2018-03-31T19:20:47.179Z,8.80
2018-03-31T19:23:13.298Z,8.80
2018-03-31T19:25:39.880Z,8.80
2018-03-31T19:28:06.237Z,8.80
2018-03-31T19:30:39.169Z,8.70
2018-03-31T19:33:05.275Z,8.70
2018-03-31T19:35:37.351Z,8.70
2018-03-31T19:38:03.429Z,8.80
2018-03-31T19:40:30.221Z,8.80
2018-03-31T19:42:56.423Z,8.70
2018-03-31T19:45:24.671Z,8.70
2018-03-31T19:47:50.703Z,8.70
2018-03-31T19:50:16.816Z,8.70
2018-03-31T19:52:42.888Z,8.70
2018-03-31T19:55:09.866Z,8.60
2018-03-31T19:57:36.453Z,8.60
2018-03-31T20:00:03.474Z,8.60
2018-03-31T20:02:30.280Z,8.60
2018-03-31T20:04:56.447Z,8.60
2018-03-31T20:07:23.933Z,8.60
2018-03-31T20:09:50.132Z,8.60
2018-03-31T20:12:16.931Z,8.50
2018-03-31T20:14:43.077Z,8.50
2018-03-31T20:17:09.823Z,8.50
2018-03-31T20:19:36.217Z,8.60
2018-03-31T20:22:03.648Z,8.60
2018-03-31T20:24:30.120Z,8.60
2018-03-31T20:26:57.216Z,8.60
2018-03-31T20:29:24.050Z,8.60
2018-03-31T20:31:50.242Z,8.60
2018-03-31T20:34:16.784Z,8.60
2018-03-31T20:36:43.773Z,8.60
2018-03-31T20:39:10.710Z,8.60
2018-03-31T20:41:38.281Z,8.50
2018-03-31T20:44:04.810Z,8.50
2018-03-31T20:46:31.613Z,8.50
2018-03-31T20:48:58.447Z,8.40
2018-03-31T20:51:24.943Z,8.40
2018-03-31T20:53:51.680Z,8.20
2018-03-31T20:56:18.227Z,8.10
2018-03-31T20:58:44.404Z,8.10
2018-03-31T21:01:11.601Z,8.00
2018-03-31T21:03:38.886Z,7.90
2018-03-31T21:06:05.751Z,7.90
2018-03-31T21:08:32.257Z,7.90
2018-03-31T21:10:59.779Z,7.90
2018-03-31T21:13:26.442Z,7.90
2018-03-31T21:15:53.656Z,7.90
2018-03-31T21:18:21.162Z,7.80
2018-03-31T21:20:47.252Z,7.70
2018-03-31T21:23:13.430Z,7.80
2018-03-31T21:25:40.142Z,7.80
2018-03-31T21:28:06.274Z,7.80
2018-03-31T21:30:33.084Z,7.80
2018-03-31T21:33:00.138Z,7.80
2018-03-31T21:35:26.878Z,7.70
2018-03-31T21:37:53.086Z,7.60
2018-03-31T21:40:19.903Z,7.40
2018-03-31T21:42:46.260Z,7.40
2018-03-31T21:45:13.116Z,7.30
2018-03-31T21:47:39.156Z,7.20
2018-03-31T21:50:05.265Z,7.20
2018-03-31T21:52:31.355Z,7.10
2018-03-31T21:54:57.693Z,7.00
2018-03-31T21:57:24.541Z,7.10
2018-03-31T21:59:51.325Z,7.10
2018-03-31T22:02:18.212Z,7.10
2018-03-31T22:04:44.262Z,7.20
2018-03-31T22:07:10.365Z,7.20
2018-03-31T22:09:36.394Z,7.20
2018-03-31T22:12:03.319Z,7.20
2018-03-31T22:14:36.187Z,7.20
2018-03-31T22:17:02.743Z,7.30
2018-03-31T22:19:29.536Z,7.30
2018-03-31T22:21:56.073Z,7.30
2018-03-31T22:24:23.463Z,7.20
2018-03-31T22:26:49.565Z,7.20
2018-03-31T22:29:15.572Z,7.10
2018-03-31T22:31:41.725Z,7.20
2018-03-31T22:34:07.883Z,7.20
2018-03-31T22:36:34.665Z,7.20
2018-03-31T22:39:01.217Z,7.20
2018-03-31T22:41:28.042Z,7.20
2018-03-31T22:43:54.546Z,7.20
2018-03-31T22:46:21.479Z,7.00
2018-03-31T22:48:48.859Z,7.10
2018-03-31T22:51:14.882Z,7.10
2018-03-31T22:53:41.136Z,7.10
2018-03-31T22:56:07.223Z,7.10
2018-03-31T22:58:33.416Z,6.80
2018-03-31T23:00:59.685Z,6.60
2018-03-31T23:03:26.724Z,6.40
2018-03-31T23:05:53.518Z,6.50
2018-03-31T23:08:20.102Z,6.50
2018-03-31T23:10:46.144Z,6.50
2018-03-31T23:13:12.612Z,6.30
2018-03-31T23:15:39.676Z,6.10
2018-03-31T23:18:07.077Z,6.00
2018-03-31T23:20:33.319Z,6.00
2018-03-31T23:23:00.208Z,6.00
2018-03-31T23:25:27.176Z,5.90
2018-03-31T23:27:55.061Z,5.70
2018-03-31T23:30:21.098Z,5.70
2018-03-31T23:32:47.212Z,5.70
2018-03-31T23:35:13.812Z,5.60
2018-03-31T23:37:39.861Z,5.60
2018-03-31T23:40:05.939Z,5.60
2018-03-31T23:42:33.047Z,5.70
2018-03-31T23:44:59.186Z,5.80
2018-03-31T23:47:25.260Z,5.80
2018-03-31T23:49:51.521Z,5.90
2018-03-31T23:52:18.431Z,5.80
2018-03-31T23:54:45.572Z,5.80
2018-03-31T23:57:12.548Z,5.80
2018-03-31T23:59:38.671Z,5.80
